createdAt,value
2023-01-17T00:00:52.216Z,2.30
2023-01-17T00:03:19.375Z,2.27
2023-01-17T00:05:46.494Z,3.10
2023-01-17T00:08:15.003Z,3.17
2023-01-17T00:10:42.149Z,2.90
2023-01-17T00:13:09.321Z,2.40
2023-01-17T00:15:36.752Z,2.90
2023-01-17T00:18:03.908Z,2.63
2023-01-17T00:20:32.113Z,2.37
2023-01-17T00:22:59.330Z,2.50
2023-01-17T00:25:29.341Z,2.40
2023-01-17T00:27:56.522Z,2.00
2023-01-17T00:30:23.783Z,2.47
2023-01-17T00:32:50.919Z,2.87
2023-01-17T00:35:18.503Z,3.20
2023-01-17T00:37:45.659Z,3.90
2023-01-17T00:40:12.897Z,4.00
2023-01-17T00:42:41.345Z,4.40
2023-01-17T00:45:08.816Z,3.70
2023-01-17T00:47:35.996Z,3.90
2023-01-17T00:50:03.180Z,4.90
2023-01-17T00:52:30.328Z,4.40
2023-01-17T00:54:57.475Z,3.73
2023-01-17T00:57:24.630Z,3.27
2023-01-17T00:59:53.140Z,2.70
2023-01-17T01:02:20.329Z,2.97
2023-01-17T01:04:47.457Z,2.40
2023-01-17T01:07:14.569Z,2.30
2023-01-17T01:09:41.672Z,1.80
2023-01-17T01:12:08.791Z,1.77
2023-01-17T01:14:35.929Z,2.17
2023-01-17T01:17:04.793Z,2.10
2023-01-17T01:19:31.901Z,2.20
2023-01-17T01:21:59.029Z,2.37
2023-01-17T01:24:26.142Z,2.40
2023-01-17T01:26:53.270Z,2.10
2023-01-17T01:29:20.383Z,2.67
2023-01-17T01:31:47.704Z,2.00
2023-01-17T01:34:16.248Z,2.07
2023-01-17T01:36:43.391Z,2.03
2023-01-17T01:39:10.568Z,2.57
2023-01-17T01:41:37.701Z,2.40
2023-01-17T01:44:05.289Z,2.10
2023-01-17T01:46:33.879Z,2.30
2023-01-17T01:49:02.094Z,2.67
2023-01-17T01:51:32.303Z,2.30
2023-01-17T01:54:02.273Z,2.60
2023-01-17T01:56:29.891Z,2.17
2023-01-17T01:58:57.624Z,3.80
2023-01-17T02:01:24.952Z,3.00
2023-01-17T02:03:52.487Z,2.70
2023-01-17T02:06:32.064Z,3.07
2023-01-17T02:09:00.352Z,2.43
2023-01-17T02:11:27.707Z,2.30
2023-01-17T02:13:54.858Z,2.80
2023-01-17T02:16:28.907Z,2.77
2023-01-17T02:19:00.311Z,2.57
2023-01-17T02:21:30.810Z,2.10
2023-01-17T02:24:11.067Z,2.40
2023-01-17T02:26:53.107Z,2.30
2023-01-17T02:29:32.258Z,2.20
2023-01-17T02:32:02.746Z,1.97
2023-01-17T02:34:33.013Z,2.20
2023-01-17T02:37:02.355Z,2.30
2023-01-17T02:39:33.371Z,2.50
2023-01-17T02:42:02.866Z,2.40
2023-01-17T02:44:30.051Z,2.40
2023-01-17T02:46:58.056Z,2.90
2023-01-17T02:49:28.783Z,2.20
2023-01-17T02:52:02.412Z,2.50
2023-01-17T02:54:45.211Z,2.60
2023-01-17T02:57:18.866Z,2.50
2023-01-17T02:59:51.299Z,2.20
2023-01-17T03:02:23.016Z,2.67
2023-01-17T03:04:54.714Z,2.53
2023-01-17T03:07:24.226Z,2.40
2023-01-17T03:09:53.163Z,2.20
2023-01-17T03:12:20.576Z,2.03
2023-01-17T03:14:47.770Z,2.53
2023-01-17T03:17:14.956Z,2.50
2023-01-17T03:19:42.195Z,2.27
2023-01-17T03:22:10.766Z,2.07
2023-01-17T03:24:37.874Z,2.20
2023-01-17T03:27:05.044Z,2.00
2023-01-17T03:29:32.190Z,2.33
2023-01-17T03:31:59.335Z,2.43
2023-01-17T03:34:26.433Z,2.30
2023-01-17T03:36:53.570Z,2.00
2023-01-17T03:39:22.063Z,2.80
2023-01-17T03:41:49.219Z,2.20
2023-01-17T03:44:16.389Z,2.33
2023-01-17T03:46:43.530Z,2.13
2023-01-17T03:49:10.669Z,2.70
2023-01-17T03:51:37.836Z,2.57
2023-01-17T03:54:05.053Z,2.80
2023-01-17T03:56:33.625Z,2.37
2023-01-17T03:59:00.874Z,2.90
2023-01-17T04:01:28.090Z,2.90
2023-01-17T04:03:55.312Z,2.30
2023-01-17T04:06:22.418Z,3.23
2023-01-17T04:08:49.549Z,4.03
2023-01-17T04:11:16.694Z,4.80
2023-01-17T04:13:45.195Z,4.73
2023-01-17T04:16:14.015Z,5.60
2023-01-17T04:18:41.236Z,6.03
2023-01-17T04:21:08.471Z,5.10
2023-01-17T04:23:35.602Z,6.60
2023-01-17T04:26:02.773Z,5.80
2023-01-17T04:28:29.939Z,7.30
2023-01-17T04:30:59.694Z,6.27
2023-01-17T04:33:26.879Z,6.83
2023-01-17T04:35:54.051Z,6.40
2023-01-17T04:38:21.276Z,5.90
2023-01-17T04:40:48.388Z,6.13
2023-01-17T04:43:15.548Z,6.03
2023-01-17T04:45:42.752Z,6.07
2023-01-17T04:48:11.233Z,6.20
2023-01-17T04:50:38.367Z,7.30
2023-01-17T04:53:05.490Z,6.23
2023-01-17T04:55:32.688Z,6.73
2023-01-17T04:57:59.831Z,6.77
2023-01-17T05:00:26.989Z,6.70
2023-01-17T05:02:54.183Z,7.13
2023-01-17T05:05:22.713Z,6.23
2023-01-17T05:07:56.489Z,6.50
2023-01-17T05:10:23.726Z,7.00
2023-01-17T05:12:54.637Z,7.07
2023-01-17T05:15:21.763Z,7.07
2023-01-17T05:17:48.860Z,7.50
2023-01-17T05:20:16.124Z,8.10
2023-01-17T05:22:44.612Z,8.47
2023-01-17T05:25:11.742Z,7.60
2023-01-17T05:27:38.837Z,7.37
2023-01-17T05:30:06.492Z,7.10
2023-01-17T05:32:33.606Z,8.40
2023-01-17T05:35:00.707Z,8.67
2023-01-17T05:37:27.837Z,7.97
2023-01-17T05:39:56.335Z,8.00
2023-01-17T05:42:23.467Z,8.50
2023-01-17T05:44:50.594Z,8.53
2023-01-17T05:47:17.704Z,8.57
2023-01-17T05:49:45.991Z,7.73
2023-01-17T05:52:13.139Z,7.13
2023-01-17T05:54:40.258Z,8.77
2023-01-17T05:57:08.694Z,7.50
2023-01-17T05:59:37.431Z,7.97
2023-01-17T06:02:04.880Z,7.77
2023-01-17T06:04:32.064Z,8.17
2023-01-17T06:06:59.278Z,7.37
2023-01-17T06:09:26.419Z,8.20
2023-01-17T06:11:53.552Z,7.40
2023-01-17T06:14:22.016Z,8.60
2023-01-17T06:16:49.153Z,8.70
2023-01-17T06:19:16.256Z,7.60
2023-01-17T06:21:43.419Z,8.57
2023-01-17T06:24:10.527Z,9.03
2023-01-17T06:26:37.664Z,7.87
2023-01-17T06:29:04.817Z,8.90
2023-01-17T06:31:33.339Z,9.57
2023-01-17T06:34:02.231Z,8.73
2023-01-17T06:36:29.362Z,9.20
2023-01-17T06:38:56.494Z,10.13
2023-01-17T06:41:23.674Z,8.80
2023-01-17T06:43:50.814Z,8.67
2023-01-17T06:46:17.923Z,8.40
2023-01-17T06:48:46.422Z,8.90
2023-01-17T06:51:13.528Z,8.03
2023-01-17T06:53:40.679Z,8.50
2023-01-17T06:56:08.086Z,9.60
2023-01-17T06:58:35.302Z,9.47
2023-01-17T07:01:06.992Z,9.30
2023-01-17T07:03:34.162Z,8.57
2023-01-17T07:06:03.201Z,8.33
2023-01-17T07:08:30.544Z,8.13
2023-01-17T07:10:58.804Z,9.17
2023-01-17T07:13:25.906Z,8.67
2023-01-17T07:15:53.066Z,8.77
2023-01-17T07:18:20.239Z,8.70
2023-01-17T07:20:47.396Z,7.23
2023-01-17T07:23:15.951Z,8.20
2023-01-17T07:25:43.073Z,8.30
2023-01-17T07:28:10.204Z,8.13
2023-01-17T07:30:37.329Z,9.90
2023-01-17T07:33:04.454Z,6.83
2023-01-17T07:35:31.586Z,8.53
2023-01-17T07:37:58.702Z,8.53
2023-01-17T07:40:27.191Z,7.93
2023-01-17T07:42:54.329Z,7.57
2023-01-17T07:45:21.459Z,8.33
2023-01-17T07:47:48.602Z,8.63
2023-01-17T07:50:15.805Z,8.80
2023-01-17T07:52:42.912Z,7.90
2023-01-17T07:55:10.389Z,8.40
2023-01-17T07:57:38.848Z,7.50
2023-01-17T08:00:06.622Z,8.87
2023-01-17T08:02:39.525Z,7.97
2023-01-17T08:05:07.268Z,8.37
2023-01-17T08:07:34.544Z,7.50
2023-01-17T08:10:01.677Z,8.13
2023-01-17T08:12:30.001Z,8.80
2023-01-17T08:14:58.473Z,8.10
2023-01-17T08:17:25.598Z,8.47
2023-01-17T08:19:52.726Z,8.83
2023-01-17T08:22:19.884Z,8.20
2023-01-17T08:24:47.026Z,8.70
2023-01-17T08:27:14.154Z,9.23
2023-01-17T08:29:41.361Z,9.70
2023-01-17T08:32:09.809Z,8.70
2023-01-17T08:34:36.956Z,9.67
2023-01-17T08:37:04.083Z,8.43
2023-01-17T08:39:31.247Z,8.67
2023-01-17T08:41:58.384Z,9.63
2023-01-17T08:44:25.586Z,9.33
2023-01-17T08:46:52.709Z,7.90
2023-01-17T08:49:21.335Z,7.40
2023-01-17T08:51:48.485Z,6.57
2023-01-17T08:54:15.625Z,6.80
2023-01-17T08:56:42.739Z,6.40
2023-01-17T08:59:11.009Z,6.20
2023-01-17T09:01:38.281Z,6.50
2023-01-17T09:04:05.667Z,6.20
2023-01-17T09:06:36.387Z,5.70
2023-01-17T09:09:03.767Z,5.20
2023-01-17T09:11:30.867Z,5.30
2023-01-17T09:13:58.054Z,6.27
2023-01-17T09:16:25.194Z,6.90
2023-01-17T09:18:54.060Z,7.47
2023-01-17T09:21:21.712Z,6.23
2023-01-17T09:23:50.224Z,5.90
2023-01-17T09:26:19.266Z,8.20
2023-01-17T09:28:46.462Z,6.70
2023-01-17T09:31:15.008Z,6.20
2023-01-17T09:33:43.134Z,5.47
2023-01-17T09:36:10.377Z,5.43
2023-01-17T09:38:37.654Z,5.73
2023-01-17T09:41:18.745Z,6.10
2023-01-17T09:43:47.652Z,4.97
2023-01-17T09:46:15.698Z,5.60
2023-01-17T09:48:43.667Z,5.53
2023-01-17T09:51:14.924Z,5.93
2023-01-17T09:53:42.356Z,6.00
2023-01-17T09:56:12.321Z,5.60
2023-01-17T09:58:42.562Z,5.63
2023-01-17T10:01:12.118Z,5.37
2023-01-17T10:03:44.288Z,5.53
2023-01-17T10:06:19.985Z,6.20
2023-01-17T10:08:54.063Z,4.53
2023-01-17T10:11:31.638Z,5.53
2023-01-17T10:14:03.993Z,5.20
2023-01-17T10:16:35.544Z,4.87
2023-01-17T10:19:11.170Z,5.40
2023-01-17T10:21:52.037Z,5.33
2023-01-17T10:24:24.138Z,5.30
2023-01-17T10:26:54.152Z,5.23
2023-01-17T10:29:21.431Z,5.00
2023-01-17T10:31:51.962Z,5.10
2023-01-17T10:34:20.127Z,5.30
2023-01-17T10:36:48.894Z,5.17
2023-01-17T10:39:19.805Z,5.00
2023-01-17T10:41:48.031Z,4.80
2023-01-17T10:44:20.517Z,5.57
2023-01-17T10:46:49.548Z,4.83
2023-01-17T10:49:18.426Z,4.63
2023-01-17T10:52:07.626Z,4.97
2023-01-17T10:54:40.499Z,4.70
2023-01-17T10:57:12.131Z,5.07
2023-01-17T10:59:40.583Z,4.30
2023-01-17T11:02:15.979Z,4.50
2023-01-17T11:04:43.146Z,5.47
2023-01-17T11:07:11.809Z,4.90
2023-01-17T11:09:41.801Z,5.37
2023-01-17T11:12:16.541Z,5.33
2023-01-17T11:14:49.641Z,5.13
2023-01-17T11:17:19.976Z,5.33
2023-01-17T11:19:47.156Z,4.23
2023-01-17T11:22:15.385Z,6.33
2023-01-17T11:24:47.786Z,6.97
2023-01-17T11:27:24.573Z,5.77
2023-01-17T11:30:02.612Z,4.90
2023-01-17T11:32:31.114Z,5.57
2023-01-17T11:35:22.278Z,4.60
2023-01-17T11:37:51.144Z,4.30
2023-01-17T11:40:21.309Z,4.87
2023-01-17T11:42:59.442Z,5.13
2023-01-17T11:45:29.191Z,5.47
2023-01-17T11:48:11.167Z,5.03
2023-01-17T11:50:39.196Z,5.63
2023-01-17T11:53:07.057Z,5.00
2023-01-17T11:55:34.233Z,4.47
2023-01-17T11:58:01.398Z,4.70
2023-01-17T12:00:34.010Z,4.87
2023-01-17T12:03:08.462Z,4.93
2023-01-17T12:05:44.328Z,4.57
2023-01-17T12:08:16.075Z,6.27
2023-01-17T12:10:48.484Z,5.33
2023-01-17T12:13:18.475Z,4.73
2023-01-17T12:15:51.781Z,5.70
2023-01-17T12:18:27.633Z,5.17
2023-01-17T12:20:58.411Z,5.30
2023-01-17T12:23:37.059Z,5.80
2023-01-17T12:26:10.139Z,5.30
2023-01-17T12:28:48.540Z,5.30
2023-01-17T12:31:23.428Z,5.33
2023-01-17T12:33:52.213Z,5.30
2023-01-17T12:36:30.945Z,6.93
2023-01-17T12:38:58.781Z,5.20
2023-01-17T12:41:28.155Z,4.60
2023-01-17T12:43:57.000Z,5.53
2023-01-17T12:46:27.766Z,4.97
2023-01-17T12:48:56.872Z,5.03
2023-01-17T12:51:25.920Z,5.90
2023-01-17T12:53:57.688Z,3.50
2023-01-17T12:56:27.281Z,3.83
2023-01-17T12:58:56.436Z,3.67
2023-01-17T13:01:29.005Z,3.50
2023-01-17T13:04:02.944Z,3.70
2023-01-17T13:06:33.094Z,3.80
2023-01-17T13:09:02.139Z,4.13
2023-01-17T13:11:31.284Z,4.03
2023-01-17T13:13:58.441Z,4.13
2023-01-17T13:16:30.798Z,4.17
2023-01-17T13:18:58.967Z,3.90
2023-01-17T13:21:29.997Z,3.20
2023-01-17T13:24:16.479Z,2.93
2023-01-17T13:26:48.741Z,2.60
2023-01-17T13:29:21.135Z,3.40
2023-01-17T13:31:59.442Z,2.87
2023-01-17T13:34:31.941Z,3.67
2023-01-17T13:37:05.141Z,3.17
2023-01-17T13:39:53.388Z,3.80
2023-01-17T13:42:24.387Z,3.20
2023-01-17T13:44:51.662Z,3.97
2023-01-17T13:47:38.324Z,3.23
2023-01-17T13:50:05.764Z,3.50
2023-01-17T13:52:33.518Z,2.90
2023-01-17T13:55:01.825Z,3.13
2023-01-17T13:57:33.323Z,2.80
2023-01-17T14:00:16.407Z,2.20
2023-01-17T14:02:44.934Z,3.73
2023-01-17T14:05:13.637Z,2.87
2023-01-17T14:07:44.158Z,3.80
2023-01-17T14:10:30.768Z,2.60
2023-01-17T14:12:57.871Z,2.37
2023-01-17T14:15:26.627Z,1.73
2023-01-17T14:17:56.237Z,1.70
2023-01-17T14:20:41.403Z,2.00
2023-01-17T14:23:25.999Z,2.00
2023-01-17T14:25:53.408Z,2.20
2023-01-17T14:28:22.987Z,2.33
2023-01-17T14:30:50.796Z,1.90
2023-01-17T14:33:20.809Z,2.93
2023-01-17T14:35:51.672Z,2.50
2023-01-17T14:38:20.813Z,2.37
2023-01-17T14:40:50.562Z,2.00
2023-01-17T14:43:19.810Z,2.13
2023-01-17T14:45:47.359Z,2.10
2023-01-17T14:48:16.167Z,2.27
2023-01-17T14:50:45.200Z,3.57
2023-01-17T14:53:19.767Z,2.50
2023-01-17T14:55:50.730Z,2.43
2023-01-17T14:58:18.171Z,3.13
2023-01-17T15:00:45.591Z,2.10
2023-01-17T15:03:13.401Z,2.93
2023-01-17T15:05:41.495Z,2.93
2023-01-17T15:08:12.830Z,2.07
2023-01-17T15:10:47.245Z,3.10
2023-01-17T15:13:16.402Z,2.70
2023-01-17T15:15:43.632Z,3.50
2023-01-17T15:18:18.722Z,2.63
2023-01-17T15:20:49.515Z,2.93
2023-01-17T15:23:19.829Z,2.47
2023-01-17T15:25:47.779Z,2.63
2023-01-17T15:28:15.592Z,2.50
2023-01-17T15:30:57.651Z,2.50
2023-01-17T15:33:24.830Z,1.83
2023-01-17T15:35:58.835Z,2.57
2023-01-17T15:38:28.104Z,2.50
2023-01-17T15:40:56.123Z,2.23
2023-01-17T15:43:27.368Z,3.50
2023-01-17T15:45:54.835Z,2.80
2023-01-17T15:48:39.834Z,4.83
2023-01-17T15:51:07.100Z,2.50
2023-01-17T15:53:36.439Z,2.80
2023-01-17T15:56:18.453Z,3.60
2023-01-17T15:58:45.550Z,3.90
2023-01-17T16:01:14.877Z,3.57
2023-01-17T16:03:51.808Z,3.80
2023-01-17T16:06:36.727Z,3.60
2023-01-17T16:09:19.542Z,4.73
2023-01-17T16:11:46.707Z,2.93
2023-01-17T16:14:13.847Z,2.90
2023-01-17T16:16:49.108Z,3.20
2023-01-17T16:19:16.233Z,3.53
2023-01-17T16:21:43.374Z,3.40
2023-01-17T16:24:12.002Z,4.20
2023-01-17T16:26:39.116Z,3.87
2023-01-17T16:29:06.264Z,3.50
2023-01-17T16:31:33.572Z,3.83
2023-01-17T16:34:00.792Z,3.20
2023-01-17T16:36:27.926Z,3.67
2023-01-17T16:38:55.049Z,4.37
2023-01-17T16:41:23.743Z,4.03
2023-01-17T16:43:57.635Z,4.30
2023-01-17T16:46:24.820Z,4.63
2023-01-17T16:48:51.987Z,3.63
2023-01-17T16:51:19.132Z,3.60
2023-01-17T16:53:46.260Z,3.90
2023-01-17T16:56:14.374Z,4.47
2023-01-17T16:58:43.032Z,4.67
2023-01-17T17:01:10.631Z,4.60
2023-01-17T17:03:37.830Z,4.10
2023-01-17T17:06:05.150Z,4.47
2023-01-17T17:08:33.726Z,3.70
2023-01-17T17:11:07.382Z,3.67
2023-01-17T17:13:35.062Z,3.80
2023-01-17T17:16:09.171Z,3.80
2023-01-17T17:18:36.333Z,4.77
2023-01-17T17:21:03.475Z,4.27
2023-01-17T17:23:30.641Z,5.80
2023-01-17T17:25:58.046Z,5.77
2023-01-17T17:28:25.248Z,4.10
2023-01-17T17:31:01.354Z,4.83
2023-01-17T17:33:29.889Z,5.87
2023-01-17T17:36:01.697Z,4.20
2023-01-17T17:38:28.814Z,4.40
2023-01-17T17:40:55.902Z,3.70
2023-01-17T17:43:24.750Z,4.47
2023-01-17T17:45:52.966Z,3.97
2023-01-17T17:48:20.105Z,4.80
2023-01-17T17:50:56.829Z,4.17
2023-01-17T17:53:25.746Z,4.70
2023-01-17T17:55:52.881Z,3.90
2023-01-17T17:58:20.006Z,3.70
2023-01-17T18:00:47.276Z,5.23
2023-01-17T18:03:14.457Z,4.50
2023-01-17T18:05:41.626Z,4.40
2023-01-17T18:08:10.109Z,4.60
2023-01-17T18:10:37.679Z,4.40
2023-01-17T18:13:04.827Z,4.80
2023-01-17T18:15:31.943Z,6.67
2023-01-17T18:17:59.212Z,6.37
2023-01-17T18:20:26.347Z,6.87
2023-01-17T18:22:53.537Z,7.13
2023-01-17T18:25:21.977Z,7.10
2023-01-17T18:27:49.099Z,6.37
2023-01-17T18:30:16.733Z,7.03
2023-01-17T18:32:43.880Z,5.43
2023-01-17T18:35:11.060Z,5.90
2023-01-17T18:37:38.172Z,5.97
2023-01-17T18:40:05.827Z,7.30
2023-01-17T18:42:34.322Z,7.20
2023-01-17T18:45:01.449Z,8.03
2023-01-17T18:47:29.500Z,7.60
2023-01-17T18:49:56.627Z,8.17
2023-01-17T18:52:23.749Z,7.20
2023-01-17T18:54:50.847Z,6.47
2023-01-17T18:57:17.933Z,6.30
2023-01-17T18:59:46.418Z,6.67
2023-01-17T19:02:13.545Z,9.07
2023-01-17T19:04:40.645Z,9.03
2023-01-17T19:07:07.917Z,8.27
2023-01-17T19:09:35.027Z,7.63
2023-01-17T19:12:02.149Z,9.57
2023-01-17T19:14:29.274Z,8.60
2023-01-17T19:16:57.717Z,9.77
2023-01-17T19:19:24.834Z,7.10
2023-01-17T19:21:51.945Z,8.03
2023-01-17T19:24:19.109Z,8.13
2023-01-17T19:26:46.195Z,6.93
2023-01-17T19:29:13.327Z,10.43
2023-01-17T19:31:41.156Z,8.07
2023-01-17T19:34:09.698Z,8.60
2023-01-17T19:36:38.271Z,8.90
2023-01-17T19:39:06.661Z,8.50
2023-01-17T19:41:34.367Z,7.73
2023-01-17T19:44:02.311Z,8.37
2023-01-17T19:46:29.702Z,9.43
2023-01-17T19:48:57.452Z,9.13
2023-01-17T19:51:26.232Z,8.27
2023-01-17T19:53:53.487Z,10.27
2023-01-17T19:56:21.407Z,9.10
2023-01-17T19:58:48.796Z,8.70
2023-01-17T20:01:17.041Z,10.90
2023-01-17T20:03:45.145Z,10.30
2023-01-17T20:06:13.280Z,10.17
2023-01-17T20:08:41.747Z,8.97
2023-01-17T20:11:09.718Z,9.00
2023-01-17T20:13:37.111Z,9.00
2023-01-17T20:16:04.932Z,8.47
2023-01-17T20:18:32.493Z,8.90
2023-01-17T20:21:02.291Z,9.53
2023-01-17T20:23:29.445Z,10.20
2023-01-17T20:25:57.926Z,10.77
2023-01-17T20:28:25.733Z,12.30
2023-01-17T20:30:52.873Z,11.80
2023-01-17T20:33:19.988Z,12.97
2023-01-17T20:35:47.119Z,13.30
2023-01-17T20:38:14.240Z,12.37
2023-01-17T20:40:41.354Z,12.70
2023-01-17T20:43:09.787Z,14.17
2023-01-17T20:45:36.979Z,12.40
2023-01-17T20:48:04.332Z,12.73
2023-01-17T20:50:31.428Z,11.93
2023-01-17T20:52:58.538Z,11.60
2023-01-17T20:55:25.652Z,12.10
2023-01-17T20:57:52.779Z,10.40
2023-01-17T21:00:21.695Z,12.90
2023-01-17T21:02:48.830Z,12.60
2023-01-17T21:05:15.980Z,12.37
2023-01-17T21:07:43.151Z,11.57
2023-01-17T21:10:10.869Z,11.30
2023-01-17T21:12:38.029Z,11.43
2023-01-17T21:15:05.538Z,11.80
2023-01-17T21:17:34.935Z,12.13
2023-01-17T21:20:02.086Z,12.40
2023-01-17T21:22:29.342Z,12.33
2023-01-17T21:24:56.476Z,12.50
2023-01-17T21:27:23.558Z,12.37
2023-01-17T21:29:50.673Z,13.97
2023-01-17T21:32:17.757Z,13.77
2023-01-17T21:34:46.226Z,13.37
2023-01-17T21:37:13.345Z,14.70
2023-01-17T21:39:40.450Z,15.10
2023-01-17T21:42:07.630Z,14.50
2023-01-17T21:44:34.714Z,14.80
2023-01-17T21:47:01.823Z,14.10
2023-01-17T21:49:29.148Z,12.73
2023-01-17T21:51:57.632Z,12.20
2023-01-17T21:54:25.740Z,13.27
2023-01-17T21:56:52.826Z,13.20
2023-01-17T21:59:19.948Z,12.60
2023-01-17T22:01:47.156Z,12.93
2023-01-17T22:04:14.299Z,13.50
2023-01-17T22:06:41.398Z,13.20
2023-01-17T22:09:09.866Z,12.70
2023-01-17T22:11:37.300Z,13.33
2023-01-17T22:14:04.656Z,12.93
2023-01-17T22:16:31.801Z,12.50
2023-01-17T22:18:58.956Z,13.73
2023-01-17T22:21:26.800Z,11.47
2023-01-17T22:23:54.687Z,14.43
2023-01-17T22:26:23.953Z,12.17
2023-01-17T22:28:51.156Z,12.77
2023-01-17T22:31:19.241Z,12.90
2023-01-17T22:33:46.734Z,12.70
2023-01-17T22:36:14.929Z,12.93
2023-01-17T22:38:42.560Z,14.83
2023-01-17T22:41:10.402Z,12.30
2023-01-17T22:43:39.569Z,12.70
2023-01-17T22:46:07.138Z,15.50
2023-01-17T22:48:35.100Z,13.10
2023-01-17T22:51:02.618Z,13.23
2023-01-17T22:53:30.084Z,13.50
2023-01-17T22:56:00.964Z,12.90
2023-01-17T22:58:28.131Z,13.27
2023-01-17T23:01:03.350Z,13.13
2023-01-17T23:03:30.520Z,13.23
2023-01-17T23:05:57.931Z,13.47
2023-01-17T23:08:24.999Z,12.40
2023-01-17T23:10:52.120Z,14.00
2023-01-17T23:13:19.222Z,13.60
2023-01-17T23:15:46.382Z,12.83
2023-01-17T23:18:14.880Z,12.70
2023-01-17T23:20:42.010Z,13.93
2023-01-17T23:23:09.095Z,13.20
2023-01-17T23:25:36.280Z,13.73
2023-01-17T23:28:03.460Z,14.23
2023-01-17T23:30:31.645Z,15.20
2023-01-17T23:33:00.392Z,14.53
2023-01-17T23:35:29.914Z,13.90
2023-01-17T23:37:57.293Z,14.43
2023-01-17T23:40:24.568Z,14.90
2023-01-17T23:42:51.685Z,14.63
2023-01-17T23:45:18.831Z,14.93
2023-01-17T23:47:45.946Z,15.97
2023-01-17T23:50:13.121Z,15.30
2023-01-17T23:52:41.598Z,14.60
2023-01-17T23:55:09.095Z,16.80
2023-01-17T23:57:36.263Z,14.30
